Mesa, Colorado
Current Conditions -  °F | °C
As of 6:53 AM on Sunday 25 Jan 2015 (Local Time) from KGJT Reporting Station
Clear Clear  
Wind Chill: 12°   Ceiling: Unl
Heat Index: 21°   Visibility: 10mi
Dew Point: 16°   Wind: 7mph
Humidity: 81%   Direction: 100°E
Pressure: 30.38"   Gusts: NA
Location:  39.17°N, 108.14°W
Report Text: KGJT 251353Z 10006KT 10SM CLR M06/M09 A3038 RMK AO2 SLP320 T10611089
Loading
Personal Weather Stations






























Interactive Weather Map New forecast layout! Learn more

10-Day Weather Forecast

Advertisements
Track Severe Weather on mobile